createdAt,value
2023-02-13T00:00:57.078Z,100096.66
2023-02-13T00:03:24.778Z,100089.75
2023-02-13T00:05:52.520Z,100094.91
2023-02-13T00:08:19.956Z,100077.03
2023-02-13T00:10:48.198Z,100086.22
2023-02-13T00:13:16.335Z,100082.53
2023-02-13T00:15:43.988Z,100070.31
2023-02-13T00:18:11.805Z,100066.63
2023-02-13T00:20:39.327Z,100062.50
2023-02-13T00:23:12.409Z,100052.47
2023-02-13T00:30:43.891Z,100057.09
2023-02-13T00:33:42.909Z,100050.44
2023-02-13T00:36:38.989Z,100033.94
2023-02-13T00:46:42.302Z,100008.38
2023-02-13T00:49:33.907Z,100008.09
2023-02-13T00:52:38.042Z,100011.50
2023-02-13T00:59:20.243Z,99995.38
2023-02-13T01:01:47.862Z,100002.78
2023-02-13T01:04:21.776Z,100000.53
2023-02-13T01:07:32.942Z,100000.84
2023-02-13T01:10:43.765Z,99999.78
2023-02-13T01:13:11.328Z,99992.72
2023-02-13T01:15:39.965Z,99988.72
2023-02-13T01:18:07.989Z,99996.69
2023-02-13T01:20:35.603Z,99994.19
2023-02-13T01:23:03.308Z,99989.72
2023-02-13T01:25:30.824Z,99986.34
2023-02-13T01:27:58.694Z,99977.19
2023-02-13T01:30:26.152Z,99972.31
2023-02-13T01:32:56.438Z,99959.78
2023-02-13T01:35:23.903Z,99955.50
2023-02-13T01:37:51.384Z,99961.66
2023-02-13T01:40:19.055Z,99951.72
2023-02-13T01:42:46.564Z,99952.19
2023-02-13T01:45:14.135Z,99941.53
2023-02-13T01:47:49.762Z,99939.31
2023-02-13T01:50:30.810Z,99939.84
2023-02-13T01:53:07.260Z,99933.94
2023-02-13T01:55:39.039Z,99928.66
2023-02-13T01:58:13.446Z,99921.56
2023-02-13T02:00:41.572Z,99919.31
2023-02-13T02:03:17.207Z,99915.44
2023-02-13T02:05:45.138Z,99898.78
2023-02-13T02:08:15.886Z,99906.28
2023-02-13T02:10:44.068Z,99888.13
2023-02-13T02:13:15.305Z,99901.44
2023-02-13T02:15:44.436Z,99901.91
2023-02-13T02:18:17.227Z,99896.25
2023-02-13T02:21:21.490Z,99900.22
2023-02-13T02:29:14.373Z,99890.47
2023-02-13T02:33:21.816Z,99891.00
2023-02-13T02:44:35.516Z,99859.97
2023-02-13T03:09:08.006Z,99823.13
2023-02-13T03:12:21.808Z,99826.28
2023-02-13T03:15:33.114Z,99818.56
2023-02-13T03:18:19.524Z,99812.22
2023-02-13T03:21:24.241Z,99812.91
2023-02-13T03:24:17.415Z,99815.09
2023-02-13T03:27:37.500Z,99812.47
2023-02-13T03:35:05.552Z,99781.75
2023-02-13T03:46:53.861Z,99742.34
2023-02-13T03:50:07.231Z,99747.28
2023-02-13T03:53:14.823Z,99741.03
2023-02-13T03:56:06.469Z,99747.38
2023-02-13T03:59:15.664Z,99761.16
2023-02-13T04:06:32.627Z,99752.44
2023-02-13T04:09:33.667Z,99751.38
2023-02-13T04:12:26.126Z,99746.22
2023-02-13T04:15:03.100Z,99748.78
2023-02-13T04:17:33.837Z,99746.13
2023-02-13T04:20:01.834Z,99719.53
2023-02-13T04:22:31.469Z,99721.28
2023-02-13T04:24:59.009Z,99715.03
2023-02-13T04:27:28.327Z,99711.75
2023-02-13T04:29:55.959Z,99698.53
2023-02-13T04:32:23.515Z,99695.59
2023-02-13T04:34:50.936Z,99688.03
2023-02-13T04:37:18.413Z,99687.06
2023-02-13T04:39:45.946Z,99689.22
2023-02-13T04:42:13.479Z,99685.44
2023-02-13T04:44:41.085Z,99673.84
2023-02-13T04:47:08.541Z,99685.19
2023-02-13T04:49:36.122Z,99680.59
2023-02-13T04:52:05.992Z,99679.19
2023-02-13T04:54:36.194Z,99673.16
2023-02-13T04:57:03.768Z,99672.28
2023-02-13T04:59:31.457Z,99663.88
2023-02-13T05:01:59.411Z,99644.22
2023-02-13T05:04:27.253Z,99643.97
2023-02-13T05:06:55.204Z,99647.13
2023-02-13T05:09:22.783Z,99645.47
2023-02-13T05:11:54.575Z,99628.09
2023-02-13T05:14:22.190Z,99636.00
2023-02-13T05:16:52.607Z,99613.34
2023-02-13T05:19:20.192Z,99615.13
2023-02-13T05:22:06.124Z,99627.88
2023-02-13T05:24:33.738Z,99625.13
2023-02-13T05:27:01.209Z,99631.41
2023-02-13T05:29:28.827Z,99623.09
2023-02-13T05:31:58.545Z,99627.66
2023-02-13T05:34:28.021Z,99620.13
2023-02-13T05:36:55.956Z,99620.41
2023-02-13T05:39:23.458Z,99605.44
2023-02-13T05:41:50.992Z,99605.94
2023-02-13T05:44:18.508Z,99609.84
2023-02-13T05:46:46.316Z,99611.84
2023-02-13T05:49:15.694Z,99605.19
2023-02-13T05:51:43.707Z,99613.38
2023-02-13T05:54:11.246Z,99613.00
2023-02-13T05:56:40.268Z,99613.53
2023-02-13T05:59:07.719Z,99614.16
2023-02-13T06:01:35.370Z,99610.72
2023-02-13T06:04:04.124Z,99607.81
2023-02-13T06:06:32.822Z,99606.31
2023-02-13T06:09:00.284Z,99618.53
2023-02-13T06:11:27.849Z,99612.63
2023-02-13T06:13:55.343Z,99607.31
2023-02-13T06:16:22.946Z,99599.66
2023-02-13T06:18:50.447Z,99603.69
2023-02-13T06:21:17.944Z,99609.19
2023-02-13T06:23:45.447Z,99608.19
2023-02-13T06:26:13.039Z,99606.81
2023-02-13T06:28:40.785Z,99600.78
2023-02-13T06:31:08.540Z,99597.59
2023-02-13T06:33:36.150Z,99607.03
2023-02-13T06:36:03.893Z,99600.59
2023-02-13T06:38:32.192Z,99598.19
2023-02-13T06:41:02.959Z,99593.25
2023-02-13T06:43:30.895Z,99577.97
2023-02-13T06:45:58.347Z,99573.31
2023-02-13T06:48:26.053Z,99569.75
2023-02-13T06:55:50.009Z,99570.34
2023-02-13T07:11:32.475Z,99556.69
2023-02-13T07:43:16.345Z,99508.50
2023-02-13T07:46:21.191Z,99506.53
2023-02-13T08:06:43.225Z,99512.31
2023-02-13T08:13:56.414Z,99509.28
2023-02-13T08:20:14.320Z,99480.94
2023-02-13T08:31:20.481Z,99451.16
2023-02-13T08:34:27.898Z,99448.75
2023-02-13T08:37:28.880Z,99443.69
2023-02-13T08:44:05.803Z,99439.72
2023-02-13T08:46:35.576Z,99427.66
2023-02-13T08:49:03.512Z,99422.78
2023-02-13T08:51:30.966Z,99420.69
2023-02-13T08:53:58.525Z,99426.06
2023-02-13T08:56:25.967Z,99424.19
2023-02-13T08:58:53.516Z,99419.25
2023-02-13T09:01:21.403Z,99417.03
2023-02-13T09:03:48.832Z,99413.75
2023-02-13T09:06:16.389Z,99422.81
2023-02-13T09:08:44.385Z,99420.81
2023-02-13T09:11:12.079Z,99413.75
2023-02-13T09:13:39.655Z,99414.72
2023-02-13T09:16:08.551Z,99408.34
2023-02-13T09:18:36.190Z,99405.25
2023-02-13T09:21:09.519Z,99411.78
2023-02-13T09:23:39.892Z,99401.34
2023-02-13T09:26:10.049Z,99396.78
2023-02-13T09:28:38.422Z,99400.91
2023-02-13T09:31:12.281Z,99393.72
2023-02-13T09:33:39.961Z,99382.13
2023-02-13T09:36:09.627Z,99374.16
2023-02-13T09:38:37.645Z,99357.63
2023-02-13T09:41:17.379Z,99354.81
2023-02-13T09:43:50.962Z,99361.25
2023-02-13T09:46:27.823Z,99347.34
2023-02-13T09:48:58.021Z,99331.84
2023-02-13T09:51:27.920Z,99330.00
2023-02-13T09:54:02.734Z,99331.25
2023-02-13T09:56:35.552Z,99334.44
2023-02-13T09:59:22.023Z,99329.03
2023-02-13T10:01:53.120Z,99326.31
2023-02-13T10:04:48.166Z,99328.06
2023-02-13T10:07:27.802Z,99314.59
2023-02-13T10:09:55.294Z,99310.38
2023-02-13T10:12:32.354Z,99311.25
2023-02-13T10:15:21.069Z,99298.44
2023-02-13T10:17:58.662Z,99303.59
2023-02-13T10:20:55.277Z,99312.00
2023-02-13T10:23:22.641Z,99318.03
2023-02-13T10:26:08.346Z,99315.22
2023-02-13T10:28:47.234Z,99302.56
2023-02-13T10:31:19.406Z,99313.91
2023-02-13T10:33:50.894Z,99310.97
2023-02-13T10:36:36.067Z,99304.34
2023-02-13T10:39:24.579Z,99310.28
2023-02-13T10:42:09.050Z,99307.56
2023-02-13T10:45:09.247Z,99294.94
2023-02-13T10:47:52.136Z,99286.97
2023-02-13T10:50:50.415Z,99292.34
2023-02-13T10:53:50.185Z,99276.59
2023-02-13T10:56:29.984Z,99270.44
2023-02-13T10:59:15.918Z,99275.00
2023-02-13T11:02:11.949Z,99267.31
2023-02-13T11:05:02.110Z,99261.50
2023-02-13T11:07:31.616Z,99244.00
2023-02-13T11:10:05.832Z,99243.13
2023-02-13T11:12:34.597Z,99239.03
2023-02-13T11:15:08.894Z,99214.16
2023-02-13T11:17:41.017Z,99226.19
2023-02-13T11:20:25.985Z,99220.63
2023-02-13T11:22:53.923Z,99225.09
2023-02-13T11:25:28.993Z,99222.38
2023-02-13T11:28:10.660Z,99218.59
2023-02-13T11:30:39.451Z,99221.84
2023-02-13T11:33:18.766Z,99223.41
2023-02-13T11:35:48.205Z,99227.78
2023-02-13T11:38:15.880Z,99215.75
2023-02-13T11:40:49.770Z,99209.34
2023-02-13T11:43:22.104Z,99205.03
2023-02-13T11:46:05.760Z,99197.09
2023-02-13T11:48:33.445Z,99192.34
2023-02-13T11:51:01.462Z,99191.31
2023-02-13T11:53:38.333Z,99186.97
2023-02-13T11:56:05.859Z,99189.81
2023-02-13T11:58:34.162Z,99167.41
2023-02-13T12:01:19.987Z,99177.13
2023-02-13T12:04:16.429Z,99170.91
2023-02-13T12:07:16.303Z,99168.88
2023-02-13T12:09:46.674Z,99169.47
2023-02-13T12:12:33.691Z,99161.66
2023-02-13T12:15:10.728Z,99142.56
2023-02-13T12:17:42.421Z,99142.38
2023-02-13T12:20:15.591Z,99150.25
2023-02-13T12:23:05.692Z,99146.34
2023-02-13T12:25:54.565Z,99144.84
2023-02-13T12:28:32.889Z,99148.56
2023-02-13T12:31:18.764Z,99143.31
2023-02-13T12:34:07.544Z,99145.59
2023-02-13T12:36:59.929Z,99145.53
2023-02-13T12:39:34.551Z,99140.78
2023-02-13T12:42:20.683Z,99137.63
2023-02-13T12:44:50.216Z,99141.06
2023-02-13T12:47:30.772Z,99131.72
2023-02-13T12:50:17.498Z,99139.06
2023-02-13T12:52:50.790Z,99131.44
2023-02-13T12:55:47.658Z,99124.97
2023-02-13T12:58:33.720Z,99119.94
2023-02-13T13:01:32.399Z,99113.25
2023-02-13T13:04:29.716Z,99094.38
2023-02-13T13:07:38.724Z,99103.50
2023-02-13T13:10:24.162Z,99105.16
2023-02-13T13:13:35.985Z,99104.28
2023-02-13T13:16:35.975Z,99102.72
2023-02-13T13:19:03.359Z,99097.06
2023-02-13T13:22:12.467Z,99094.94
2023-02-13T13:25:01.225Z,99092.94
2023-02-13T13:27:35.109Z,99098.66
2023-02-13T13:30:27.586Z,99098.00
2023-02-13T13:33:00.654Z,99097.69
2023-02-13T13:35:29.820Z,99101.19
2023-02-13T13:38:09.028Z,99099.44
2023-02-13T13:40:41.900Z,99094.38
2023-02-13T13:43:46.865Z,99093.81
2023-02-13T13:47:02.951Z,99078.69
2023-02-13T13:49:54.029Z,99083.31
2023-02-13T13:52:33.102Z,99080.88
2023-02-13T13:55:02.859Z,99065.69
2023-02-13T13:57:34.279Z,99068.16
2023-02-13T14:00:21.742Z,99069.41
2023-02-13T14:03:33.631Z,99074.88
2023-02-13T14:06:10.427Z,99070.16
2023-02-13T14:08:40.984Z,99070.63
2023-02-13T14:11:30.953Z,99069.06
2023-02-13T14:13:59.626Z,99064.25
2023-02-13T14:16:45.146Z,99055.31
2023-02-13T14:19:34.028Z,99059.59
2023-02-13T14:22:31.660Z,99036.97
2023-02-13T14:25:01.475Z,99042.22
2023-02-13T14:27:33.315Z,99033.56
2023-02-13T14:30:02.107Z,99033.66
2023-02-13T14:32:40.855Z,99023.44
2023-02-13T14:35:24.710Z,99034.81
2023-02-13T14:37:54.213Z,99023.88
2023-02-13T14:40:22.317Z,99025.81
2023-02-13T14:43:27.270Z,99030.75
2023-02-13T14:46:08.545Z,99022.84
2023-02-13T14:48:45.507Z,99015.38
2023-02-13T14:51:22.017Z,99019.06
2023-02-13T14:54:03.859Z,99027.13
2023-02-13T14:56:32.722Z,99015.66
2023-02-13T14:59:19.011Z,99011.25
2023-02-13T15:02:26.050Z,99004.78
2023-02-13T15:05:01.480Z,99002.56
2023-02-13T15:07:38.306Z,98992.56
2023-02-13T15:10:12.791Z,98986.00
2023-02-13T15:12:40.754Z,98972.34
2023-02-13T15:15:52.248Z,98978.44
2023-02-13T15:18:27.370Z,98966.13
2023-02-13T15:21:00.919Z,98954.88
2023-02-13T15:23:31.076Z,98945.59
2023-02-13T15:26:00.880Z,98941.63
2023-02-13T15:28:29.272Z,98941.78
2023-02-13T15:31:20.988Z,98931.22
2023-02-13T15:33:50.985Z,98932.19
2023-02-13T15:36:25.612Z,98941.63
2023-02-13T15:39:22.776Z,98936.38
2023-02-13T15:41:54.370Z,98917.72
2023-02-13T15:44:39.852Z,98912.34
2023-02-13T15:47:30.588Z,98902.06
2023-02-13T15:49:58.630Z,98892.75
2023-02-13T15:52:32.442Z,98889.75
2023-02-13T15:55:00.484Z,98896.03
2023-02-13T15:57:28.914Z,98900.78
2023-02-13T15:59:59.197Z,98885.59
2023-02-13T16:02:47.996Z,98879.28
2023-02-13T16:05:20.020Z,98890.88
2023-02-13T16:07:57.526Z,98873.72
2023-02-13T16:10:34.472Z,98865.75
2023-02-13T16:13:06.904Z,98871.69
2023-02-13T16:15:37.237Z,98877.63
2023-02-13T16:18:06.424Z,98868.28
2023-02-13T16:20:35.354Z,98877.84
2023-02-13T16:23:07.390Z,98875.41
2023-02-13T16:26:03.810Z,98861.31
2023-02-13T16:28:36.067Z,98857.63
2023-02-13T16:31:05.096Z,98855.78
2023-02-13T16:33:42.656Z,98830.63
2023-02-13T16:36:10.250Z,98835.16
2023-02-13T16:38:41.695Z,98834.41
2023-02-13T16:41:25.928Z,98815.47
2023-02-13T16:44:03.516Z,98820.47
2023-02-13T16:46:30.960Z,98819.03
2023-02-13T16:49:00.491Z,98807.72
2023-02-13T16:51:42.919Z,98808.03
2023-02-13T16:54:10.492Z,98803.94
2023-02-13T16:56:45.701Z,98795.44
2023-02-13T16:59:36.250Z,98788.22
2023-02-13T17:02:16.183Z,98789.59
2023-02-13T17:04:50.954Z,98785.66
2023-02-13T17:07:28.818Z,98778.38
2023-02-13T17:10:02.543Z,98777.19
2023-02-13T17:12:32.040Z,98769.44
2023-02-13T17:15:00.325Z,98783.31
2023-02-13T17:17:30.718Z,98757.00
2023-02-13T17:20:02.350Z,98766.44
2023-02-13T17:22:43.246Z,98762.53
2023-02-13T17:25:22.058Z,98768.94
2023-02-13T17:27:51.297Z,98756.91
2023-02-13T17:30:24.457Z,98760.78
2023-02-13T17:32:58.817Z,98755.03
2023-02-13T17:35:28.787Z,98744.75
2023-02-13T17:37:56.685Z,98747.59
2023-02-13T17:40:28.518Z,98730.53
2023-02-13T17:42:57.959Z,98728.72
2023-02-13T17:45:28.218Z,98724.38
2023-02-13T17:47:57.908Z,98709.16
2023-02-13T17:50:27.881Z,98713.50
2023-02-13T17:52:58.534Z,98698.84
2023-02-13T17:55:28.935Z,98713.44
2023-02-13T17:57:58.450Z,98690.06
2023-02-13T18:00:29.307Z,98691.09
2023-02-13T18:02:59.408Z,98700.44
2023-02-13T18:05:32.961Z,98701.25
2023-02-13T18:08:03.890Z,98686.97
2023-02-13T18:10:36.879Z,98691.97
2023-02-13T18:13:04.901Z,98686.75
2023-02-13T18:15:34.200Z,98689.34
2023-02-13T18:18:03.338Z,98680.94
2023-02-13T18:20:31.464Z,98671.53
2023-02-13T18:22:59.322Z,98673.34
2023-02-13T18:25:27.512Z,98672.41
2023-02-13T18:27:55.635Z,98661.28
2023-02-13T18:30:24.349Z,98662.25
2023-02-13T18:32:56.372Z,98648.75
2023-02-13T18:35:24.036Z,98651.22
2023-02-13T18:37:52.004Z,98648.53
2023-02-13T18:40:20.050Z,98636.59
2023-02-13T18:42:48.405Z,98634.97
2023-02-13T18:45:16.688Z,98617.72
2023-02-13T18:47:44.565Z,98630.63
2023-02-13T18:50:14.285Z,98622.22
2023-02-13T18:52:42.239Z,98608.75
2023-02-13T18:55:09.845Z,98609.91
2023-02-13T18:57:37.652Z,98597.97
2023-02-13T19:00:05.917Z,98599.03
2023-02-13T19:02:34.563Z,98592.97
2023-02-13T19:05:02.890Z,98591.34
2023-02-13T19:07:51.069Z,98581.06
2023-02-13T19:10:20.839Z,98586.28
2023-02-13T19:12:49.265Z,98576.00
2023-02-13T19:15:16.831Z,98577.06
2023-02-13T19:17:46.838Z,98567.59
2023-02-13T19:20:16.766Z,98558.09
2023-02-13T19:22:44.472Z,98567.44
2023-02-13T19:25:11.955Z,98558.88
2023-02-13T19:27:40.447Z,98560.63
2023-02-13T19:30:09.774Z,98553.06
2023-02-13T19:32:37.316Z,98547.94
2023-02-13T19:35:05.399Z,98554.09
2023-02-13T19:37:43.109Z,98538.09
2023-02-13T19:40:13.377Z,98549.16
2023-02-13T19:42:40.973Z,98540.50
2023-02-13T19:45:08.998Z,98540.38
2023-02-13T19:47:36.955Z,98535.41
2023-02-13T19:50:04.758Z,98537.16
2023-02-13T19:52:32.419Z,98544.75
2023-02-13T19:54:59.876Z,98544.81
2023-02-13T19:57:28.020Z,98543.16
2023-02-13T19:59:55.554Z,98544.88
2023-02-13T20:02:23.159Z,98538.88
2023-02-13T20:04:50.599Z,98548.44
2023-02-13T20:07:18.103Z,98538.31
2023-02-13T20:09:45.540Z,98533.06
2023-02-13T20:12:13.072Z,98537.16
2023-02-13T20:14:40.738Z,98543.16
2023-02-13T20:17:08.303Z,98539.00
2023-02-13T20:19:37.132Z,98540.75
2023-02-13T20:22:04.617Z,98529.91
2023-02-13T20:24:33.148Z,98537.69
2023-02-13T20:27:00.942Z,98535.25
2023-02-13T20:29:28.396Z,98533.59
2023-02-13T20:31:56.004Z,98532.78
2023-02-13T20:34:25.908Z,98532.56
2023-02-13T20:36:54.319Z,98535.97
2023-02-13T20:39:21.873Z,98537.78
2023-02-13T20:41:50.551Z,98542.25
2023-02-13T20:44:22.731Z,98554.13
2023-02-13T20:46:51.168Z,98545.59
2023-02-13T20:49:22.075Z,98550.97
2023-02-13T20:51:50.094Z,98555.22
2023-02-13T20:54:17.752Z,98541.63
2023-02-13T20:56:46.113Z,98540.00
2023-02-13T20:59:13.803Z,98530.72
2023-02-13T21:01:41.654Z,98542.59
2023-02-13T21:04:11.337Z,98543.47
2023-02-13T21:06:42.163Z,98547.84
2023-02-13T21:09:12.916Z,98548.41
2023-02-13T21:11:43.565Z,98541.53
2023-02-13T21:14:12.349Z,98543.56
2023-02-13T21:16:41.741Z,98548.53
2023-02-13T21:19:14.197Z,98561.47
2023-02-13T21:21:44.589Z,98553.91
2023-02-13T21:24:19.056Z,98553.72
2023-02-13T21:26:49.612Z,98555.44
2023-02-13T21:29:17.106Z,98557.13
2023-02-13T21:31:49.417Z,98560.72
2023-02-13T21:34:18.908Z,98550.56
2023-02-13T21:36:46.925Z,98558.41
2023-02-13T21:39:15.028Z,98566.16
2023-02-13T21:41:44.751Z,98562.91
2023-02-13T21:44:14.665Z,98560.34
2023-02-13T21:46:43.917Z,98552.06
2023-02-13T21:49:13.857Z,98551.25
2023-02-13T21:51:41.609Z,98539.25
2023-02-13T21:54:10.548Z,98539.72
2023-02-13T21:56:40.788Z,98551.38
2023-02-13T21:59:10.451Z,98557.13
2023-02-13T22:01:50.379Z,98542.69
2023-02-13T22:04:18.505Z,98554.84
2023-02-13T22:06:49.944Z,98565.97
2023-02-13T22:09:19.956Z,98558.00
2023-02-13T22:11:47.770Z,98559.91
2023-02-13T22:14:18.540Z,98559.41
2023-02-13T22:16:49.483Z,98557.66
2023-02-13T22:19:17.564Z,98555.94
2023-02-13T22:21:45.396Z,98562.63
2023-02-13T22:24:13.451Z,98571.69
2023-02-13T22:26:45.373Z,98562.25
2023-02-13T22:29:15.219Z,98571.50
2023-02-13T22:31:43.013Z,98562.09
2023-02-13T22:34:13.598Z,98573.88
2023-02-13T22:36:42.990Z,98574.53
2023-02-13T22:39:12.046Z,98582.94
2023-02-13T22:41:39.829Z,98585.50
2023-02-13T22:44:07.289Z,98583.94
2023-02-13T22:46:35.603Z,98568.66
2023-02-13T22:49:03.322Z,98579.75
2023-02-13T22:51:36.127Z,98583.22
2023-02-13T22:54:04.954Z,98581.53
2023-02-13T22:56:33.016Z,98577.44
2023-02-13T22:59:00.712Z,98579.97
2023-02-13T23:01:29.093Z,98586.03
2023-02-13T23:03:56.923Z,98592.22
2023-02-13T23:06:25.173Z,98592.91
2023-02-13T23:08:53.764Z,98585.47
2023-02-13T23:11:45.649Z,98583.91
2023-02-13T23:14:13.891Z,98584.78
2023-02-13T23:17:00.915Z,98594.00
2023-02-13T23:19:31.558Z,98598.56
2023-02-13T23:22:00.098Z,98600.09
2023-02-13T23:24:29.502Z,98589.00
2023-02-13T23:26:57.220Z,98586.84
2023-02-13T23:29:24.777Z,98598.88
2023-02-13T23:31:52.824Z,98602.06
2023-02-13T23:34:20.472Z,98606.22
2023-02-13T23:36:48.082Z,98597.50
2023-02-13T23:39:15.646Z,98601.84
2023-02-13T23:41:43.242Z,98616.38
2023-02-13T23:44:10.765Z,98616.44
2023-02-13T23:46:38.324Z,98618.97
2023-02-13T23:49:07.490Z,98612.22
2023-02-13T23:51:35.355Z,98608.75
2023-02-13T23:54:03.288Z,98607.03
2023-02-13T23:56:31.022Z,98614.81
2023-02-13T23:58:58.821Z,98626.88
